Waldorf, Maryland
Current Conditions -  °F | °C
As of 11:58 AM on Friday 28 Nov 2014 (Local Time) from KADW Reporting Station
Few Clouds Few Clouds  
Wind Chill: 29°   Ceiling: Unl
Heat Index: 37°   Visibility: 10mi
Dew Point: 23°   Wind: 13mph
Humidity: 56%   Direction: 310°NW
Pressure: 30.27"   Gusts: NA
Location:  38.62°N, 76.9°W
Report Text: KADW 281658Z AUTO 31011KT 10SM FEW041 03/M05 A3027 RMK AO2 UPE1606RAB1617E1634 SLP260 P0000 T00271052 $
Loading
Personal Weather Stations






























Interactive Weather Map New forecast layout! Learn more

10-Day Weather Forecast

Advertisements
Track Severe Weather on mobile